Observations for STANSTED AIRPORT, United Kingdom (EGSS)

EGSS 260520Z AUTO VRB02KT 4100 HZ NCD 14/13 Q1018   
EGSS 260450Z AUTO 08002KT 4100 HZ NCD 14/13 Q1019   
EGSS 260420Z AUTO 12001KT 4800 HZ NCD 15/13 Q1019   
EGSS 260350Z AUTO 16002KT 5000 HZ NCD 16/14 Q1019   
EGSS 260320Z AUTO 13002KT 5000 HZ NCD 17/14 Q1019   
EGSS 260250Z AUTO 20003KT 5000 HZ NCD 16/14 Q1019   
EGSS 260220Z AUTO 14002KT 5000 HZ NCD 17/14 Q1019   
EGSS 260150Z AUTO 11001KT 6000 NCD 17/14 Q1019  
EGSS 260120Z AUTO 14002KT 6000 NCD 17/14 Q1019  
EGSS 260050Z AUTO VRB02KT 6000 NCD 19/15 Q1019  
EGSS 260020Z AUTO 13004KT 100V170 7000 NCD 19/14 Q1019  
EGSS 252350Z AUTO 13005KT 8000 NCD 19/14 Q1020  
EGSS 252320Z AUTO 13007KT 9999 NCD 19/14 Q1020  
EGSS 252250Z AUTO 14006KT 9999 NCD 20/13 Q1020  
EGSS 252220Z AUTO 12007KT 090V150 9999 NCD 21/12 Q1020  
EGSS 252150Z AUTO 12008KT 9999 NCD 21/12 Q1020  
EGSS 252120Z AUTO 11007KT 9999 NCD 21/13 Q1020  
EGSS 252050Z AUTO 11008KT 090V150 9999 NCD 22/13 Q1020  
EGSS 252020Z AUTO 11007KT 090V180 9999 NCD 23/13 Q1020  
EGSS 251950Z AUTO 12007KT 9999 NCD 24/13 Q1019  
EGSS 251920Z AUTO 12008KT 100V170 9999 NCD 24/13 Q1019  
EGSS 251850Z AUTO 12009KT 9999 NCD 26/13 Q1019  
EGSS 251820Z AUTO 12010KT 9999 NCD 27/12 Q1019  
EGSS 251750Z AUTO 12009KT 090V170 9999 NCD 28/13 Q1019  
EGSS 251720Z AUTO 12011KT 100V170 9999 NCD 29/14 Q1018  
EGSS 251650Z AUTO 11011KT 070V170 9999 NCD 29/14 Q1018  
EGSS 251620Z AUTO 13011KT 080V180 9999 NCD 30/14 Q1018  
EGSS 251550Z AUTO 10010KT 070V140 9999 NCD 31/14 Q1018  
EGSS 251520Z AUTO 13008KT 080V180 9999 NCD 31/12 Q1018  
EGSS 251450Z AUTO 15008KT 110V210 9999 NCD 32/12 Q1018  
EGSS 251420Z 12005KT 040V200 CAVOK 31/12 Q1018  
EGSS 251350Z AUTO 15008KT 110V210 9999 NCD 31/12 Q1018  
EGSS 251320Z AUTO 13007KT 090V170 9999 NCD 31/12 Q1018  
EGSS 251250Z AUTO 13007KT 050V230 9999 NCD 31/12 Q1018  
EGSS 251220Z AUTO 15008KT 110V210 9999 NCD 31/13 Q1018  
EGSS 251150Z AUTO 17008KT 110V210 9999 NCD 30/12 Q1018  
EGSS 251120Z AUTO 15008KT 090V190 9999 NCD 30/13 Q1018  
EGSS 251050Z AUTO 13010KT 100V170 9999 NCD 29/13 Q1019  
EGSS 251020Z AUTO 13007KT 090V200 9999 NCD 29/14 Q1019  
EGSS 250950Z AUTO 14009KT 9999 NCD 27/15 Q1019  
EGSS 250920Z AUTO 14005KT 9999 NCD 26/16 Q1019  
EGSS 250850Z AUTO 11006KT 9999 NCD 25/15 Q1019  
EGSS 250820Z AUTO 12006KT 090V150 9999 NCD 23/16 Q1019  
EGSS 250750Z AUTO 09005KT 040V130 8000 NCD 21/16 Q1018  
EGSS 250720Z AUTO 10005KT 070V160 7000 NCD 20/15 Q1018  
EGSS 250650Z AUTO 09005KT 050V150 5000 HZ NCD 18/15 Q1018   
EGSS 250620Z AUTO 11004KT 070V160 5000 HZ NCD 19/15 Q1018   
EGSS 250550Z AUTO 10005KT 060V170 4900 HZ NCD 18/15 Q1018   
EGSS 250520Z AUTO 10004KT 070V170 4700 HZ NCD 18/15 Q1017   
EGSS 250450Z AUTO 08005KT 3900 HZ NCD 16/14 Q1017